CW2718 Weather Reports


Display with metric or nautical units.
time (UTC)temp
F
wind
direction
speed
MPH
gust
MPH
rain 1hr
in
rain 24hr
in
rain mn
in
humidity
%
barometer
mb
20240530013058 60 274 0.0 0.0 0.02 0.21 0.21 93 1012.3
20240530012058 60 274 0.0 0.0 0.02 0.21 0.21 93 1012.5
20240530011058 60 273 0.0 0.0 0.02 0.20 0.20 93 1012.2
20240530010058 60 273 0.0 0.0 0.02 0.20 0.20 93 1012.0
20240530005058 60 286 0.0 2.0 0.03 0.20 0.20 92 1011.8
20240530004058 60 190 0.0 0.0 0.03 0.19 0.19 92 1011.9
20240530003058 60 190 0.0 0.0 0.03 0.19 0.19 92 1011.7
20240530001058 60 254 0.0 0.0 0.06 0.18 0.18 91 1011.3
20240530000058 60 254 0.0 0.0 0.08 0.18 0.18 91 1011.1
20240529235058 60 252 0.0 0.0 0.11 0.17 0.17 90 1011.5
20240529234058 60 252 0.0 0.0 0.12 0.16 0.16 90 1011.7
20240529233058 60 360 0.0 0.0 0.12 0.16 0.16 89 1012.1
20240529232058 60 276 0.0 2.0 0.10 0.14 0.14 88 1012.3
20240529230058 62 200 0.0 5.0 0.10 0.10 0.10 86 1012.2
20240529224058 64 258 6.0 12.0 0.04 0.04 0.04 79 1011.6
20240529223058 65 181 0.0 12.0 0.04 0.04 0.04 74 1010.9
20240529222058 69 205 5.0 17.0 0.04 0.04 0.04 67 1010.5
20240529221100 75 74 0.0 0.0 0.00 0.00 0.00 50 1010.6
20240529220058 75 188 0.0 0.0 0.00 0.00 0.00 50 1010.1
20240529213057 76 185 0.0 0.0 0.00 0.00 0.00 48 1010.3
20240529212058 77 207 0.0 0.0 0.00 0.00 0.00 50 1010.3
20240529211057 77 176 0.0 0.0 0.00 0.00 0.00 47 1010.2
20240529210057 77 177 0.0 0.0 0.00 0.00 0.00 48 1010.2
20240529205058 77 176 0.0 0.0 0.00 0.00 0.00 46 1010.3
20240529204057 77 175 0.0 0.0 0.00 0.00 0.00 48 1010.4
20240529203057 77 141 0.0 7.0 0.00 0.00 0.00 49 1010.4
20240529201058 78 355 0.0 0.0 0.00 0.00 0.00 44 1010.4
20240529195057 77 58 0.0 0.0 0.00 0.00 0.00 49 1010.6
20240529193059 78 98 0.0 1.0 0.00 0.00 0.00 47 1010.7
20240529192057 79 217 0.0 0.0 0.00 0.00 0.00 43 1010.8
20240529191058 78 197 0.0 0.0 0.00 0.00 0.00 44 1010.9
20240529185057 78 178 0.0 4.0 0.00 0.00 0.00 46 1011.1
20240529184057 78 206 0.0 5.0 0.00 0.00 0.00 47 1011.2
20240529183057 75 200 0.0 3.0 0.00 0.00 0.00 50 1011.3
20240529182059 77 175 0.0 4.0 0.00 0.00 0.00 51 1011.6
20240529181057 75 188 0.0 0.0 0.00 0.00 0.00 52 1011.7
20240529180057 75 242 0.0 0.0 0.00 0.00 0.00 54 1011.9
20240529175057 74 242 0.0 0.0 0.00 0.00 0.00 51 1012.1
20240529174057 75 5 0.0 0.0 0.00 0.00 0.00 53 1012.1
20240529173057 77 313 0.0 0.0 0.00 0.00 0.00 52 1012.1
20240529172057 77 165 0.0 0.0 0.00 0.00 0.00 52 1012.2
20240529171057 75 273 0.0 1.0 0.00 0.00 0.00 50 1012.5
20240529170057 76 132 0.0 1.0 0.00 0.00 0.00 51 1012.8
20240529165057 76 213 0.0 0.0 0.00 0.00 0.00 56 1012.9
20240529164057 72 259 0.0 2.0 0.00 0.00 0.00 55 1013.1
20240529163057 73 274 0.0 1.0 0.00 0.00 0.00 55 1013.1
20240529162058 76 274 0.0 1.0 0.00 0.00 0.00 52 1013.2
20240529160057 76 200 0.0 0.0 0.00 0.00 0.00 53 1013.4
20240529155057 72 200 0.0 0.0 0.00 0.00 0.00 58 1013.5
20240529154057 73 268 0.0 2.0 0.00 0.00 0.00 59 1013.5
20240529152057 73 273 0.0 0.0 0.00 0.00 0.00 57 1013.5
20240529151058 74 261 0.0 0.0 0.00 0.00 0.00 55 1013.4
20240529150056 74 240 0.0 0.0 0.00 0.00 0.00 57 1013.2
20240529145059 73 18 0.0 0.0 0.00 0.00 0.00 57 1013.1
20240529144057 73 244 0.0 0.0 0.00 0.00 0.00 61 1013.0
20240529143058 73 244 0.0 0.0 0.00 0.00 0.00 59 1012.8
20240529142057 73 238 0.0 0.0 0.00 0.00 0.00 59 1012.5
20240529141057 71 16 0.0 0.0 0.00 0.00 0.00 66 1012.3
20240529140057 71 291 0.0 0.0 0.00 0.00 0.00 61 1012.3
20240529134057 71 275 0.0 0.0 0.00 0.00 0.00 64 1012.1
20240529132057 70 329 0.0 1.0 0.00 0.00 0.00 67 1012.2
20240529131058 70 223 0.0 3.0 0.00 0.00 0.00 66 1012.2
20240529130057 70 235 0.0 2.0 0.00 0.00 0.00 69 1012.2
20240529125059 68 262 0.0 1.0 0.00 0.00 0.00 71 1012.3
20240529124058 69 265 0.0 3.0 0.00 0.00 0.00 71 1012.3
20240529123057 68 264 0.0 0.0 0.00 0.00 0.00 72 1012.4
20240529122057 66 279 0.0 1.0 0.00 0.00 0.00 77 1012.5
20240529121057 66 277 0.0 0.0 0.00 0.00 0.00 75 1012.5
20240529120057 65 270 0.0 0.0 0.00 0.00 0.00 77 1012.5
20240529113057 60 271 0.0 0.0 0.00 0.00 0.00 91 1012.4
20240529112057 59 270 0.0 0.0 0.00 0.00 0.00 92 1012.3
20240529111057 58 275 0.0 3.0 0.00 0.00 0.00 93 1012.2
20240529104057 56 262 0.0 0.0 0.00 0.00 0.00 93 1012.0
20240529102056 55 262 0.0 1.0 0.00 0.00 0.00 92 1011.8
20240529101056 55 248 0.0 0.0 0.00 0.00 0.00 92 1011.7